createdAt,value
2023-04-11T00:00:00.000Z,0
2023-04-11T00:01:01.000Z,0
2023-04-11T00:02:03.000Z,0
2023-04-11T00:03:03.000Z,0
2023-04-11T00:04:04.000Z,0
2023-04-11T00:05:10.000Z,0
2023-04-11T00:06:11.000Z,0
2023-04-11T00:07:17.000Z,0
2023-04-11T00:08:18.000Z,0
2023-04-11T00:09:18.000Z,0
2023-04-11T00:10:19.000Z,0
2023-04-11T00:11:20.000Z,0
2023-04-11T00:12:21.000Z,0
2023-04-11T00:13:22.000Z,0
2023-04-11T00:14:23.000Z,0
2023-04-11T00:15:24.000Z,0
2023-04-11T00:16:24.000Z,0
2023-04-11T00:17:25.000Z,0
2023-04-11T00:18:26.000Z,0
2023-04-11T00:19:26.000Z,0
2023-04-11T00:20:28.000Z,0
2023-04-11T00:21:29.000Z,0
2023-04-11T00:22:30.000Z,0
2023-04-11T00:23:36.000Z,0
2023-04-11T00:24:37.000Z,0
2023-04-11T00:25:38.000Z,0
2023-04-11T00:26:38.000Z,0
2023-04-11T00:27:39.000Z,0
2023-04-11T00:28:40.000Z,0
2023-04-11T00:29:41.000Z,0
2023-04-11T00:30:42.000Z,0
2023-04-11T00:31:43.000Z,0
2023-04-11T00:32:44.000Z,0
2023-04-11T00:33:45.000Z,0
2023-04-11T00:34:45.000Z,0
2023-04-11T00:35:46.000Z,0
2023-04-11T00:36:47.000Z,0
2023-04-11T00:37:48.000Z,0
2023-04-11T00:38:49.000Z,0
2023-04-11T00:39:50.000Z,0
2023-04-11T00:40:50.000Z,0
2023-04-11T00:41:51.000Z,0
2023-04-11T00:42:52.000Z,0
2023-04-11T00:43:53.000Z,0
2023-04-11T00:44:54.000Z,0
2023-04-11T00:45:54.000Z,0
2023-04-11T00:46:55.000Z,0
2023-04-11T00:47:56.000Z,0
2023-04-11T00:49:02.000Z,0
2023-04-11T00:50:03.000Z,0
2023-04-11T00:51:04.000Z,0
2023-04-11T00:52:05.000Z,0
2023-04-11T00:53:06.000Z,0
2023-04-11T00:54:06.000Z,0
2023-04-11T00:55:07.000Z,0
2023-04-11T00:56:08.000Z,0
2023-04-11T00:57:09.000Z,0
2023-04-11T00:58:09.000Z,0
2023-04-11T00:59:10.000Z,0
2023-04-11T01:00:11.000Z,0
2023-04-11T01:01:12.000Z,0
2023-04-11T01:02:13.000Z,0
2023-04-11T01:03:13.000Z,0
2023-04-11T01:04:14.000Z,0
2023-04-11T01:05:15.000Z,0
2023-04-11T01:06:16.000Z,0
2023-04-11T01:07:16.000Z,0
2023-04-11T01:08:17.000Z,0
2023-04-11T01:09:18.000Z,0
2023-04-11T01:10:19.000Z,0
2023-04-11T01:11:20.000Z,0
2023-04-11T01:12:20.000Z,0
2023-04-11T01:13:21.000Z,0
2023-04-11T01:14:22.000Z,0
2023-04-11T01:15:23.000Z,0
2023-04-11T01:16:24.000Z,0
2023-04-11T01:17:24.000Z,0
2023-04-11T01:18:25.000Z,0
2023-04-11T01:19:26.000Z,0
2023-04-11T01:20:27.000Z,0
2023-04-11T01:21:28.000Z,0
2023-04-11T01:22:28.000Z,0
2023-04-11T01:23:29.000Z,0
2023-04-11T01:24:30.000Z,0
2023-04-11T01:25:31.000Z,0
2023-04-11T01:26:31.000Z,0
2023-04-11T01:27:32.000Z,0
2023-04-11T01:28:33.000Z,0
2023-04-11T01:29:34.000Z,0
2023-04-11T01:30:34.000Z,0
2023-04-11T01:31:35.000Z,0
2023-04-11T01:32:36.000Z,0
2023-04-11T01:33:37.000Z,0
2023-04-11T01:34:37.000Z,0
2023-04-11T01:35:38.000Z,0
2023-04-11T01:36:39.000Z,0
2023-04-11T01:37:40.000Z,0
2023-04-11T01:38:40.000Z,0
2023-04-11T01:39:41.000Z,0
2023-04-11T01:40:42.000Z,0
2023-04-11T01:41:43.000Z,0
2023-04-11T01:42:43.000Z,0
2023-04-11T01:43:44.000Z,0
2023-04-11T01:44:45.000Z,0
2023-04-11T01:45:46.000Z,0
2023-04-11T01:46:46.000Z,0
2023-04-11T01:47:47.000Z,0
2023-04-11T01:48:48.000Z,0
2023-04-11T01:49:49.000Z,0
2023-04-11T01:50:49.000Z,0
2023-04-11T01:51:50.000Z,0
2023-04-11T01:52:51.000Z,0
2023-04-11T01:53:51.000Z,0
2023-04-11T01:54:52.000Z,0
2023-04-11T01:55:53.000Z,0
2023-04-11T01:56:54.000Z,0
2023-04-11T01:57:55.000Z,0
2023-04-11T01:58:55.000Z,0
2023-04-11T01:59:56.000Z,0
2023-04-11T02:00:57.000Z,0
2023-04-11T02:01:58.000Z,0
2023-04-11T02:02:58.000Z,0
2023-04-11T02:03:59.000Z,0
2023-04-11T02:05:00.000Z,0
2023-04-11T02:06:00.000Z,0
2023-04-11T02:07:01.000Z,0
2023-04-11T02:08:02.000Z,0
2023-04-11T02:09:03.000Z,0
2023-04-11T02:10:04.000Z,0
2023-04-11T02:11:04.000Z,0
2023-04-11T02:12:05.000Z,0
2023-04-11T02:13:06.000Z,0
2023-04-11T02:14:07.000Z,0
2023-04-11T02:15:07.000Z,0
2023-04-11T02:16:08.000Z,0
2023-04-11T02:17:09.000Z,0
2023-04-11T02:18:10.000Z,0
2023-04-11T02:19:11.000Z,0
2023-04-11T02:20:11.000Z,0
2023-04-11T02:21:12.000Z,0
2023-04-11T02:22:13.000Z,0
2023-04-11T02:23:14.000Z,0
2023-04-11T02:24:15.000Z,0
2023-04-11T02:25:15.000Z,0
2023-04-11T02:26:16.000Z,0
2023-04-11T02:27:17.000Z,0
2023-04-11T02:28:18.000Z,0
2023-04-11T02:29:19.000Z,0
2023-04-11T02:30:19.000Z,0
2023-04-11T02:31:20.000Z,0
2023-04-11T02:32:21.000Z,0
2023-04-11T02:33:22.000Z,0
2023-04-11T02:34:23.000Z,0
2023-04-11T02:35:24.000Z,0
2023-04-11T02:36:25.000Z,0
2023-04-11T02:37:26.000Z,0
2023-04-11T02:38:26.000Z,0
2023-04-11T02:39:27.000Z,0
2023-04-11T02:40:33.000Z,0
2023-04-11T02:41:34.000Z,0
2023-04-11T02:42:35.000Z,0
2023-04-11T02:43:36.000Z,0
2023-04-11T02:44:36.000Z,0
2023-04-11T02:45:37.000Z,0
2023-04-11T02:46:38.000Z,0
2023-04-11T02:47:39.000Z,0
2023-04-11T02:48:40.000Z,0
2023-04-11T02:49:41.000Z,0
2023-04-11T02:50:42.000Z,0
2023-04-11T02:51:43.000Z,0
2023-04-11T02:52:43.000Z,0
2023-04-11T02:53:44.000Z,0
2023-04-11T02:54:45.000Z,0
2023-04-11T02:55:46.000Z,0
2023-04-11T02:56:47.000Z,0
2023-04-11T02:57:48.000Z,0
2023-04-11T02:58:49.000Z,0
2023-04-11T02:59:50.000Z,0
2023-04-11T03:00:51.000Z,0
2023-04-11T03:01:52.000Z,0
2023-04-11T03:02:52.000Z,0
2023-04-11T03:03:53.000Z,0
2023-04-11T03:04:54.000Z,0
2023-04-11T03:05:55.000Z,0
2023-04-11T03:06:56.000Z,0
2023-04-11T03:07:57.000Z,0
2023-04-11T03:08:58.000Z,0
2023-04-11T03:09:59.000Z,0
2023-04-11T03:11:00.000Z,0
2023-04-11T03:12:00.000Z,0
2023-04-11T03:13:01.000Z,0
2023-04-11T03:14:02.000Z,0
2023-04-11T03:15:03.000Z,0
2023-04-11T03:16:04.000Z,0
2023-04-11T03:17:05.000Z,0
2023-04-11T03:18:06.000Z,0
2023-04-11T03:19:06.000Z,0
2023-04-11T03:20:07.000Z,0
2023-04-11T03:21:08.000Z,0
2023-04-11T03:22:09.000Z,0
2023-04-11T03:23:10.000Z,0
2023-04-11T03:24:11.000Z,0
2023-04-11T03:25:12.000Z,0
2023-04-11T03:26:13.000Z,0
2023-04-11T03:27:13.000Z,0
2023-04-11T03:28:14.000Z,0
2023-04-11T03:29:15.000Z,0
2023-04-11T03:30:16.000Z,0
2023-04-11T03:31:17.000Z,0
2023-04-11T03:32:18.000Z,0
2023-04-11T03:33:19.000Z,0
2023-04-11T03:34:20.000Z,0
2023-04-11T03:35:20.000Z,0
2023-04-11T03:36:21.000Z,0
2023-04-11T03:37:22.000Z,0
2023-04-11T03:38:23.000Z,0
2023-04-11T03:39:23.000Z,0
2023-04-11T03:40:24.000Z,0
2023-04-11T03:41:25.000Z,0
2023-04-11T03:42:26.000Z,0
2023-04-11T03:43:27.000Z,0
2023-04-11T03:44:27.000Z,0
2023-04-11T03:45:28.000Z,0
2023-04-11T03:46:29.000Z,0
2023-04-11T03:47:30.000Z,0
2023-04-11T03:48:31.000Z,0
2023-04-11T03:49:31.000Z,1
2023-04-11T03:50:32.000Z,1
2023-04-11T03:51:33.000Z,1
2023-04-11T03:52:34.000Z,0
2023-04-11T03:53:34.000Z,1
2023-04-11T03:54:35.000Z,1
2023-04-11T03:55:36.000Z,2
2023-04-11T03:56:37.000Z,1
2023-04-11T03:57:38.000Z,2
2023-04-11T03:58:38.000Z,2
2023-04-11T03:59:39.000Z,3
2023-04-11T04:00:40.000Z,4
2023-04-11T04:01:41.000Z,5
2023-04-11T04:02:42.000Z,5
2023-04-11T04:03:42.000Z,7
2023-04-11T04:04:43.000Z,9
2023-04-11T04:05:44.000Z,11
2023-04-11T04:06:45.000Z,13
2023-04-11T04:07:45.000Z,15
2023-04-11T04:08:46.000Z,16
2023-04-11T04:09:47.000Z,19
2023-04-11T04:10:48.000Z,24
2023-04-11T04:11:48.000Z,31
2023-04-11T04:12:49.000Z,37
2023-04-11T04:13:50.000Z,40
2023-04-11T04:14:51.000Z,41
2023-04-11T04:15:51.000Z,42
2023-04-11T04:16:52.000Z,42
2023-04-11T04:17:53.000Z,44
2023-04-11T04:18:54.000Z,50
2023-04-11T04:19:54.000Z,59
2023-04-11T04:20:55.000Z,67
2023-04-11T04:21:56.000Z,75
2023-04-11T04:22:57.000Z,87
2023-04-11T04:23:58.000Z,101
2023-04-11T04:24:58.000Z,110
2023-04-11T04:25:59.000Z,125
2023-04-11T04:27:00.000Z,146
2023-04-11T04:28:01.000Z,161
2023-04-11T04:29:01.000Z,169
2023-04-11T04:30:02.000Z,185
2023-04-11T04:31:03.000Z,209
2023-04-11T04:32:04.000Z,230
2023-04-11T04:33:04.000Z,231
2023-04-11T04:34:05.000Z,219
2023-04-11T04:35:06.000Z,211
2023-04-11T04:36:07.000Z,221
2023-04-11T04:37:08.000Z,242
2023-04-11T04:38:08.000Z,249
2023-04-11T04:39:09.000Z,249
2023-04-11T04:40:10.000Z,254
2023-04-11T04:41:11.000Z,249
2023-04-11T04:42:11.000Z,235
2023-04-11T04:43:12.000Z,226
2023-04-11T04:44:13.000Z,220
2023-04-11T04:45:14.000Z,219
2023-04-11T04:46:14.000Z,232
2023-04-11T04:47:15.000Z,254
2023-04-11T04:48:16.000Z,276
2023-04-11T04:49:17.000Z,277
2023-04-11T04:50:17.000Z,275
2023-04-11T04:51:18.000Z,274
2023-04-11T04:52:19.000Z,271
2023-04-11T04:53:20.000Z,286
2023-04-11T04:54:21.000Z,327
2023-04-11T04:55:21.000Z,378
2023-04-11T04:56:22.000Z,437
2023-04-11T04:57:23.000Z,503
2023-04-11T04:58:23.000Z,566
2023-04-11T04:59:24.000Z,624
2023-04-11T05:00:25.000Z,688
2023-04-11T05:01:26.000Z,779
2023-04-11T05:02:27.000Z,885
2023-04-11T05:03:27.000Z,1017
2023-04-11T05:04:28.000Z,1146
2023-04-11T05:05:29.000Z,1235
2023-04-11T05:06:30.000Z,1337
2023-04-11T05:07:30.000Z,1546
2023-04-11T05:08:31.000Z,1929
2023-04-11T05:09:32.000Z,2460
2023-04-11T05:10:32.000Z,2983
2023-04-11T05:11:33.000Z,3432
2023-04-11T05:12:34.000Z,3718
2023-04-11T05:13:35.000Z,3886
2023-04-11T05:14:35.000Z,4077
2023-04-11T05:15:36.000Z,4291
2023-04-11T05:16:37.000Z,4439
2023-04-11T05:17:38.000Z,4378
2023-04-11T05:18:38.000Z,4229
2023-04-11T05:19:39.000Z,4020
2023-04-11T05:20:40.000Z,3736
2023-04-11T05:21:41.000Z,3461
2023-04-11T05:22:41.000Z,3308
2023-04-11T05:23:42.000Z,3079
2023-04-11T05:24:43.000Z,2889
2023-04-11T05:25:44.000Z,2728
2023-04-11T05:26:45.000Z,2558
2023-04-11T05:27:46.000Z,2432
2023-04-11T05:28:46.000Z,2288
2023-04-11T05:29:47.000Z,2162
2023-04-11T05:30:48.000Z,2046
2023-04-11T05:31:49.000Z,1963
2023-04-11T05:32:50.000Z,2117
2023-04-11T05:33:51.000Z,2303
2023-04-11T05:34:52.000Z,2508
2023-04-11T05:35:52.000Z,2756
2023-04-11T05:36:53.000Z,3090
2023-04-11T05:37:54.000Z,3387
2023-04-11T05:38:55.000Z,3570
2023-04-11T05:39:56.000Z,3571
2023-04-11T05:40:57.000Z,3435
2023-04-11T05:41:57.000Z,3250
2023-04-11T05:42:58.000Z,3074
2023-04-11T05:43:59.000Z,2863
2023-04-11T05:45:00.000Z,2647
2023-04-11T05:46:01.000Z,2496
2023-04-11T05:47:02.000Z,2387
2023-04-11T05:48:03.000Z,2363
2023-04-11T05:49:03.000Z,2420
2023-04-11T05:50:04.000Z,2534
2023-04-11T05:51:05.000Z,2717
2023-04-11T05:52:06.000Z,2923
2023-04-11T05:53:07.000Z,3091
2023-04-11T05:54:07.000Z,3185
2023-04-11T05:55:08.000Z,3176
2023-04-11T05:56:09.000Z,3070
2023-04-11T05:57:10.000Z,2996
2023-04-11T05:58:11.000Z,2918
2023-04-11T05:59:12.000Z,2760
2023-04-11T06:00:13.000Z,2584
2023-04-11T06:01:14.000Z,2438
2023-04-11T06:02:15.000Z,2385
2023-04-11T06:03:15.000Z,2424
2023-04-11T06:04:16.000Z,2586
2023-04-11T06:05:17.000Z,2803
2023-04-11T06:06:18.000Z,3035
2023-04-11T06:07:19.000Z,3243
2023-04-11T06:08:20.000Z,3368
2023-04-11T06:09:21.000Z,3421
2023-04-11T06:10:22.000Z,3410
2023-04-11T06:11:23.000Z,3322
2023-04-11T06:12:23.000Z,3171
2023-04-11T06:13:24.000Z,2901
2023-04-11T06:14:25.000Z,2631
2023-04-11T06:15:26.000Z,2446
2023-04-11T06:16:27.000Z,2523
2023-04-11T06:17:28.000Z,2887
2023-04-11T06:18:28.000Z,3234
2023-04-11T06:19:29.000Z,3268
2023-04-11T06:20:30.000Z,3295
2023-04-11T06:21:31.000Z,3618
2023-04-11T06:22:32.000Z,3983
2023-04-11T06:23:32.000Z,4328
2023-04-11T06:24:33.000Z,4625
2023-04-11T06:25:34.000Z,4949
2023-04-11T06:26:35.000Z,5282
2023-04-11T06:27:36.000Z,5556
2023-04-11T06:28:37.000Z,5888
2023-04-11T06:29:37.000Z,6130
2023-04-11T06:30:38.000Z,6282
2023-04-11T06:31:39.000Z,6265
2023-04-11T06:32:40.000Z,6125
2023-04-11T06:33:41.000Z,5849
2023-04-11T06:34:42.000Z,5430
2023-04-11T06:35:43.000Z,5035
2023-04-11T06:36:43.000Z,4683
2023-04-11T06:37:44.000Z,4463
2023-04-11T06:38:45.000Z,4357
2023-04-11T06:39:46.000Z,4319
2023-04-11T06:40:46.000Z,4356
2023-04-11T06:41:47.000Z,4617
2023-04-11T06:42:48.000Z,5033
2023-04-11T06:43:49.000Z,5309
2023-04-11T06:44:50.000Z,5413
2023-04-11T06:45:51.000Z,5605
2023-04-11T06:46:52.000Z,5796
2023-04-11T06:47:53.000Z,6030
2023-04-11T06:48:53.000Z,6236
2023-04-11T06:49:54.000Z,6201
2023-04-11T06:50:55.000Z,5934
2023-04-11T06:51:56.000Z,5566
2023-04-11T06:52:57.000Z,5335
2023-04-11T06:53:58.000Z,5338
2023-04-11T06:54:59.000Z,5561
2023-04-11T06:55:59.000Z,5963
2023-04-11T06:57:00.000Z,6521
2023-04-11T06:58:01.000Z,7023
2023-04-11T06:59:02.000Z,7389
2023-04-11T07:00:03.000Z,7584
2023-04-11T07:01:04.000Z,7566
2023-04-11T07:02:04.000Z,7417
2023-04-11T07:03:05.000Z,7266
2023-04-11T07:04:06.000Z,7616
2023-04-11T07:05:07.000Z,8300
2023-04-11T07:06:07.000Z,9367
2023-04-11T07:07:08.000Z,10357
2023-04-11T07:08:09.000Z,10901
2023-04-11T07:09:10.000Z,10743
2023-04-11T07:10:11.000Z,10188
2023-04-11T07:11:11.000Z,9834
2023-04-11T07:12:12.000Z,9911
2023-04-11T07:13:13.000Z,10288
2023-04-11T07:14:14.000Z,10675
2023-04-11T07:15:15.000Z,10456
2023-04-11T07:16:16.000Z,9781
2023-04-11T07:17:16.000Z,9268
2023-04-11T07:18:17.000Z,9456
2023-04-11T07:19:18.000Z,10494
2023-04-11T07:20:19.000Z,11951
2023-04-11T07:21:20.000Z,13250
2023-04-11T07:22:20.000Z,14075
2023-04-11T07:23:21.000Z,13636
2023-04-11T07:24:22.000Z,11692
2023-04-11T07:25:23.000Z,9336
2023-04-11T07:26:24.000Z,7504
2023-04-11T07:27:25.000Z,5949
2023-04-11T07:28:25.000Z,5049
2023-04-11T07:29:26.000Z,4866
2023-04-11T07:30:27.000Z,4980
2023-04-11T07:31:28.000Z,5240
2023-04-11T07:32:28.000Z,5903
2023-04-11T07:33:29.000Z,7027
2023-04-11T07:34:30.000Z,8018
2023-04-11T07:35:31.000Z,8634
2023-04-11T07:36:32.000Z,8674
2023-04-11T07:37:33.000Z,8447
2023-04-11T07:38:33.000Z,8220
2023-04-11T07:39:34.000Z,8280
2023-04-11T07:40:35.000Z,9018
2023-04-11T07:41:36.000Z,9710
2023-04-11T07:42:37.000Z,10275
2023-04-11T07:43:37.000Z,10203
2023-04-11T07:44:38.000Z,9753
2023-04-11T07:45:39.000Z,9726
2023-04-11T07:46:40.000Z,9952
2023-04-11T07:47:41.000Z,9945
2023-04-11T07:48:41.000Z,10237
2023-04-11T07:49:42.000Z,10957
2023-04-11T07:50:43.000Z,12344
2023-04-11T07:51:44.000Z,13758
2023-04-11T07:52:45.000Z,14189
2023-04-11T07:53:45.000Z,15297
2023-04-11T07:54:46.000Z,16400
2023-04-11T07:55:47.000Z,16896
2023-04-11T07:56:48.000Z,16352
2023-04-11T07:57:49.000Z,15226
2023-04-11T07:58:49.000Z,14830
2023-04-11T07:59:50.000Z,15133
2023-04-11T08:00:51.000Z,15944
2023-04-11T08:01:52.000Z,16808
2023-04-11T08:02:52.000Z,17976
2023-04-11T08:03:53.000Z,19600
2023-04-11T08:04:54.000Z,20504
2023-04-11T08:05:55.000Z,21848
2023-04-11T08:06:56.000Z,21864
2023-04-11T08:07:56.000Z,22312
2023-04-11T08:08:57.000Z,23136
2023-04-11T08:09:58.000Z,24376
2023-04-11T08:10:59.000Z,26248
2023-04-11T08:12:00.000Z,28808
2023-04-11T08:13:01.000Z,29584
2023-04-11T08:14:02.000Z,30720
2023-04-11T08:15:02.000Z,32064
2023-04-11T08:16:03.000Z,32664
2023-04-11T08:17:04.000Z,32520
2023-04-11T08:18:05.000Z,32304
2023-04-11T08:19:05.000Z,31216
2023-04-11T08:20:06.000Z,28704
2023-04-11T08:21:07.000Z,27160
2023-04-11T08:22:08.000Z,26744
2023-04-11T08:23:09.000Z,24760
2023-04-11T08:24:09.000Z,24856
2023-04-11T08:25:10.000Z,25472
2023-04-11T08:26:11.000Z,26632
2023-04-11T08:27:12.000Z,27752
2023-04-11T08:28:12.000Z,29560
2023-04-11T08:29:13.000Z,30944
2023-04-11T08:30:14.000Z,27200
2023-04-11T08:31:15.000Z,30656
2023-04-11T08:32:15.000Z,29288
2023-04-11T08:33:16.000Z,26232
2023-04-11T08:34:17.000Z,28528
2023-04-11T08:35:18.000Z,29144
2023-04-11T08:36:18.000Z,28832
2023-04-11T08:37:19.000Z,31576
2023-04-11T08:38:20.000Z,31432
2023-04-11T08:39:21.000Z,34336
2023-04-11T08:40:22.000Z,23600
2023-04-11T08:41:22.000Z,53704
2023-04-11T08:42:23.000Z,27608
2023-04-11T08:43:24.000Z,16289
2023-04-11T08:44:25.000Z,14967
2023-04-11T08:45:25.000Z,17576
2023-04-11T08:46:26.000Z,24992
2023-04-11T08:47:27.000Z,56712
2023-04-11T08:48:28.000Z,65535
2023-04-11T08:49:28.000Z,65535
2023-04-11T08:50:29.000Z,48872
2023-04-11T08:51:30.000Z,32432
2023-04-11T08:52:31.000Z,65535
2023-04-11T08:53:32.000Z,64712
2023-04-11T08:54:32.000Z,61592
2023-04-11T08:55:33.000Z,41472
2023-04-11T08:56:34.000Z,26312
2023-04-11T08:57:34.000Z,20928
2023-04-11T08:58:35.000Z,20016
2023-04-11T08:59:36.000Z,25952
2023-04-11T09:00:37.000Z,35320
2023-04-11T09:01:38.000Z,50888
2023-04-11T09:02:38.000Z,54512
2023-04-11T09:03:39.000Z,51200
2023-04-11T09:04:40.000Z,48648
2023-04-11T09:05:41.000Z,65535
2023-04-11T09:06:41.000Z,62048
2023-04-11T09:07:42.000Z,48352
2023-04-11T09:08:43.000Z,42328
2023-04-11T09:09:44.000Z,40664
2023-04-11T09:10:44.000Z,41568
2023-04-11T09:11:45.000Z,52360
2023-04-11T09:12:46.000Z,63992
2023-04-11T09:13:47.000Z,52472
2023-04-11T09:14:47.000Z,58752
2023-04-11T09:15:48.000Z,65535
2023-04-11T09:16:49.000Z,64048
2023-04-11T09:17:50.000Z,65535
2023-04-11T09:18:50.000Z,65535
2023-04-11T09:19:51.000Z,65535
2023-04-11T09:20:52.000Z,65535
2023-04-11T09:21:53.000Z,48296
2023-04-11T09:22:53.000Z,64288
2023-04-11T09:23:54.000Z,57296
2023-04-11T09:24:55.000Z,40424
2023-04-11T09:25:56.000Z,34328
2023-04-11T09:26:56.000Z,24232
2023-04-11T09:27:57.000Z,17856
2023-04-11T09:28:58.000Z,10985
2023-04-11T09:29:59.000Z,8596
2023-04-11T09:30:59.000Z,10329
2023-04-11T09:32:00.000Z,12464
2023-04-11T09:33:01.000Z,13907
2023-04-11T09:34:02.000Z,13588
2023-04-11T09:35:03.000Z,12817
2023-04-11T09:36:03.000Z,12278
2023-04-11T09:37:04.000Z,13230
2023-04-11T09:38:05.000Z,16877
2023-04-11T09:39:05.000Z,65535
2023-04-11T09:40:06.000Z,57624
2023-04-11T09:41:07.000Z,21808
2023-04-11T09:42:08.000Z,19888
2023-04-11T09:43:08.000Z,20208
2023-04-11T09:44:09.000Z,59000
2023-04-11T09:45:10.000Z,65535
2023-04-11T09:46:11.000Z,65535
2023-04-11T09:47:11.000Z,65535
2023-04-11T09:48:12.000Z,37968
2023-04-11T09:49:13.000Z,65535
2023-04-11T09:50:14.000Z,27208
2023-04-11T09:51:14.000Z,25248
2023-04-11T09:52:15.000Z,23216
2023-04-11T09:53:16.000Z,23952
2023-04-11T09:54:17.000Z,19488
2023-04-11T09:55:18.000Z,15738
2023-04-11T09:56:18.000Z,13378
2023-04-11T09:57:19.000Z,18464
2023-04-11T09:58:20.000Z,65535
2023-04-11T09:59:21.000Z,65535
2023-04-11T10:00:22.000Z,65535
2023-04-11T10:01:22.000Z,65535
2023-04-11T10:02:23.000Z,65535
2023-04-11T10:03:24.000Z,65535
2023-04-11T10:04:25.000Z,65535
2023-04-11T10:05:26.000Z,65535
2023-04-11T10:06:26.000Z,65535
2023-04-11T10:07:27.000Z,65535
2023-04-11T10:08:28.000Z,65535
2023-04-11T10:09:29.000Z,65535
2023-04-11T10:10:30.000Z,65535
2023-04-11T10:11:31.000Z,38032
2023-04-11T10:12:31.000Z,33360
2023-04-11T10:13:32.000Z,20688
2023-04-11T10:14:33.000Z,13829
2023-04-11T10:15:33.000Z,9219
2023-04-11T10:16:34.000Z,9388
2023-04-11T10:17:35.000Z,14168
2023-04-11T10:18:36.000Z,20560
2023-04-11T10:19:37.000Z,22880
2023-04-11T10:20:38.000Z,22712
2023-04-11T10:21:38.000Z,21096
2023-04-11T10:22:39.000Z,18304
2023-04-11T10:23:40.000Z,15047
2023-04-11T10:24:41.000Z,12237
2023-04-11T10:25:42.000Z,9809
2023-04-11T10:26:42.000Z,8055
2023-04-11T10:27:43.000Z,6917
2023-04-11T10:28:44.000Z,6644
2023-04-11T10:29:45.000Z,7335
2023-04-11T10:30:46.000Z,9156
2023-04-11T10:31:47.000Z,11646
2023-04-11T10:32:47.000Z,14208
2023-04-11T10:33:48.000Z,16832
2023-04-11T10:34:49.000Z,19496
2023-04-11T10:35:50.000Z,22512
2023-04-11T10:36:50.000Z,25336
2023-04-11T10:37:51.000Z,28336
2023-04-11T10:38:52.000Z,50280
2023-04-11T10:39:53.000Z,30256
2023-04-11T10:40:54.000Z,65535
2023-04-11T10:41:54.000Z,65535
2023-04-11T10:42:55.000Z,65535
2023-04-11T10:43:56.000Z,48368
2023-04-11T10:44:57.000Z,65535
2023-04-11T10:45:58.000Z,65535
2023-04-11T10:46:58.000Z,65535
2023-04-11T10:47:59.000Z,65535
2023-04-11T10:49:00.000Z,65535
2023-04-11T10:50:01.000Z,65535
2023-04-11T10:51:01.000Z,60176
2023-04-11T10:52:02.000Z,65535
2023-04-11T10:53:03.000Z,65535
2023-04-11T10:54:04.000Z,65535
2023-04-11T10:55:04.000Z,65535
2023-04-11T10:56:05.000Z,53496
2023-04-11T10:57:06.000Z,59048
2023-04-11T10:58:12.000Z,65535
2023-04-11T10:59:12.000Z,65535
2023-04-11T11:00:13.000Z,63432
2023-04-11T11:01:14.000Z,40248
2023-04-11T11:02:15.000Z,35888
2023-04-11T11:03:15.000Z,33328
2023-04-11T11:04:16.000Z,31560
2023-04-11T11:05:17.000Z,30464
2023-04-11T11:06:18.000Z,29696
2023-04-11T11:07:18.000Z,28904
2023-04-11T11:08:19.000Z,28272
2023-04-11T11:09:20.000Z,27896
2023-04-11T11:10:21.000Z,28136
2023-04-11T11:11:21.000Z,29136
2023-04-11T11:12:22.000Z,30416
2023-04-11T11:13:23.000Z,31568
2023-04-11T11:14:24.000Z,30680
2023-04-11T11:15:25.000Z,29104
2023-04-11T11:16:25.000Z,27576
2023-04-11T11:17:26.000Z,26488
2023-04-11T11:18:27.000Z,27624
2023-04-11T11:19:28.000Z,31240
2023-04-11T11:20:28.000Z,65535
2023-04-11T11:21:29.000Z,65535
2023-04-11T11:22:30.000Z,65535
2023-04-11T11:23:31.000Z,65535
2023-04-11T11:24:32.000Z,65535
2023-04-11T11:25:32.000Z,65535
2023-04-11T11:26:34.000Z,65535
2023-04-11T11:27:35.000Z,65535
2023-04-11T11:28:36.000Z,65535
2023-04-11T11:29:36.000Z,65535
2023-04-11T11:30:37.000Z,65535
2023-04-11T11:31:38.000Z,65535
2023-04-11T11:32:39.000Z,63216
2023-04-11T11:33:40.000Z,52824
2023-04-11T11:34:40.000Z,51176
2023-04-11T11:35:41.000Z,41064
2023-04-11T11:36:42.000Z,27472
2023-04-11T11:37:43.000Z,54552
2023-04-11T11:38:44.000Z,52608
2023-04-11T11:39:44.000Z,36192
2023-04-11T11:40:45.000Z,33576
2023-04-11T11:41:46.000Z,39584
2023-04-11T11:42:47.000Z,38784
2023-04-11T11:43:47.000Z,30512
2023-04-11T11:44:48.000Z,47064
2023-04-11T11:45:49.000Z,49656
2023-04-11T11:46:50.000Z,49416
2023-04-11T11:47:50.000Z,37024
2023-04-11T11:48:51.000Z,52784
2023-04-11T11:49:52.000Z,51456
2023-04-11T11:50:53.000Z,50696
2023-04-11T11:51:53.000Z,44544
2023-04-11T11:52:54.000Z,52872
2023-04-11T11:53:55.000Z,52936
2023-04-11T11:54:56.000Z,51328
2023-04-11T11:55:57.000Z,51824
2023-04-11T11:56:57.000Z,43224
2023-04-11T11:57:58.000Z,28616
2023-04-11T11:58:59.000Z,39600
2023-04-11T12:00:00.000Z,29840
2023-04-11T12:01:00.000Z,65535
2023-04-11T12:02:01.000Z,56752
2023-04-11T12:03:02.000Z,65535
2023-04-11T12:04:03.000Z,65535
2023-04-11T12:05:04.000Z,65535
2023-04-11T12:06:04.000Z,65535
2023-04-11T12:07:05.000Z,65535
2023-04-11T12:08:06.000Z,65535
2023-04-11T12:09:07.000Z,65535
2023-04-11T12:10:08.000Z,61640
2023-04-11T12:11:13.000Z,65535
2023-04-11T12:12:14.000Z,65535
2023-04-11T12:13:15.000Z,31432
2023-04-11T12:14:16.000Z,34544
2023-04-11T12:15:16.000Z,65535
2023-04-11T12:16:17.000Z,21672
2023-04-11T12:17:18.000Z,17448
2023-04-11T12:18:19.000Z,20552
2023-04-11T12:19:20.000Z,48176
2023-04-11T12:20:20.000Z,39544
2023-04-11T12:21:21.000Z,47864
2023-04-11T12:22:22.000Z,42512
2023-04-11T12:23:23.000Z,41744
2023-04-11T12:24:23.000Z,38632
2023-04-11T12:25:24.000Z,27912
2023-04-11T12:26:25.000Z,37616
2023-04-11T12:27:26.000Z,43768
2023-04-11T12:28:27.000Z,36192
2023-04-11T12:29:27.000Z,25920
2023-04-11T12:30:28.000Z,27944
2023-04-11T12:31:29.000Z,30144
2023-04-11T12:32:30.000Z,32384
2023-04-11T12:33:31.000Z,35280
2023-04-11T12:34:31.000Z,38456
2023-04-11T12:35:32.000Z,38968
2023-04-11T12:36:33.000Z,40456
2023-04-11T12:37:34.000Z,48896
2023-04-11T12:38:35.000Z,55248
2023-04-11T12:39:36.000Z,64544
2023-04-11T12:40:36.000Z,65535
2023-04-11T12:41:37.000Z,64664
2023-04-11T12:42:38.000Z,65535
2023-04-11T12:43:39.000Z,65312
2023-04-11T12:44:40.000Z,65535
2023-04-11T12:45:41.000Z,65535
2023-04-11T12:46:41.000Z,65535
2023-04-11T12:47:42.000Z,65535
2023-04-11T12:48:43.000Z,65535
2023-04-11T12:49:44.000Z,65535
2023-04-11T12:50:45.000Z,65535
2023-04-11T12:51:45.000Z,65535
2023-04-11T12:52:46.000Z,65535
2023-04-11T12:53:47.000Z,65535
2023-04-11T12:54:48.000Z,65535
2023-04-11T12:55:49.000Z,65535
2023-04-11T12:56:50.000Z,65535
2023-04-11T12:57:51.000Z,65535
2023-04-11T12:58:51.000Z,65535
2023-04-11T12:59:52.000Z,65535
2023-04-11T13:00:53.000Z,64304
2023-04-11T13:01:54.000Z,63592
2023-04-11T13:02:55.000Z,65535
2023-04-11T13:03:55.000Z,65535
2023-04-11T13:04:56.000Z,62464
2023-04-11T13:05:57.000Z,65535
2023-04-11T13:06:58.000Z,62168
2023-04-11T13:07:59.000Z,19504
2023-04-11T13:08:59.000Z,63720
2023-04-11T13:10:00.000Z,58256
2023-04-11T13:11:01.000Z,61680
2023-04-11T13:12:02.000Z,64456
2023-04-11T13:13:02.000Z,65535
2023-04-11T13:14:03.000Z,65535
2023-04-11T13:15:04.000Z,62992
2023-04-11T13:16:05.000Z,62808
2023-04-11T13:17:06.000Z,56752
2023-04-11T13:18:07.000Z,55960
2023-04-11T13:19:07.000Z,65535
2023-04-11T13:20:08.000Z,25192
2023-04-11T13:21:09.000Z,65535
2023-04-11T13:22:10.000Z,65535
2023-04-11T13:23:11.000Z,65535
2023-04-11T13:24:11.000Z,65535
2023-04-11T13:25:12.000Z,65535
2023-04-11T13:26:13.000Z,65535
2023-04-11T13:27:14.000Z,65535
2023-04-11T13:28:15.000Z,65535
2023-04-11T13:29:15.000Z,45816
2023-04-11T13:30:16.000Z,65535
2023-04-11T13:31:17.000Z,65535
2023-04-11T13:32:18.000Z,65535
2023-04-11T13:33:19.000Z,65535
2023-04-11T13:34:20.000Z,65535
2023-04-11T13:35:20.000Z,65535
2023-04-11T13:36:21.000Z,48080
2023-04-11T13:37:22.000Z,23824
2023-04-11T13:38:23.000Z,23280
2023-04-11T13:39:24.000Z,23824
2023-04-11T13:40:24.000Z,65535
2023-04-11T13:41:25.000Z,28176
2023-04-11T13:42:26.000Z,24752
2023-04-11T13:43:27.000Z,39016
2023-04-11T13:44:28.000Z,35536